Terminal Aerodrome Forecast
Issued by NWS Blacksburg, VA

Home | Current Version | Previous Version | Text Only | Print | Product List | Glossary On
Versions: 1 2 3 4 5 6 7 8 9 10 11 12 13 14 15 16 17 18 19 20 21 22 23 24 25 26 27 28 29 30 31
000
FTUS41 KRNK 032045 AAA
TAFROA
TAF AMD
KROA 032045Z 0321/0418 01005KT 6SM -SHRA BR OVC017
     FM032130 13006KT 5SM SHRA VCTS SCT014 OVC035CB
      TEMPO 0322/0323 2SM +SHRA OVC014
     FM040000 13004KT 4SM BR VCSH OVC020
     FM040400 00000KT 2SM -SHRA BR OVC009
     FM041100 28007KT 4SM BR OVC015=

USA.gov is the U.S. government's official web portal to all federal, state and local government web resources and services.